sensor_id;sensor_type;location;lat;lon;timestamp;P1;durP1;ratioP1;P2;durP2;ratioP2
29432;SDS011;16405;53.964;13.448;2023-12-04T00:01:44;65.50;;;19.30;;
29432;SDS011;16405;53.964;13.448;2023-12-04T00:04:18;59.35;;;19.40;;
29432;SDS011;16405;53.964;13.448;2023-12-04T00:06:46;65.60;;;18.77;;
29432;SDS011;16405;53.964;13.448;2023-12-04T00:09:12;64.88;;;19.73;;
29432;SDS011;16405;53.964;13.448;2023-12-04T00:11:38;54.28;;;19.33;;
29432;SDS011;16405;53.964;13.448;2023-12-04T00:14:09;50.03;;;18.20;;
29432;SDS011;16405;53.964;13.448;2023-12-04T00:16:35;59.08;;;19.95;;
29432;SDS011;16405;53.964;13.448;2023-12-04T00:19:04;57.45;;;19.20;;
29432;SDS011;16405;53.964;13.448;2023-12-04T00:21:30;59.78;;;19.23;;
29432;SDS011;16405;53.964;13.448;2023-12-04T00:24:04;52.70;;;19.27;;
29432;SDS011;16405;53.964;13.448;2023-12-04T00:26:30;50.97;;;18.75;;
29432;SDS011;16405;53.964;13.448;2023-12-04T00:28:56;58.25;;;19.30;;
29432;SDS011;16405;53.964;13.448;2023-12-04T00:31:32;52.53;;;18.65;;
29432;SDS011;16405;53.964;13.448;2023-12-04T00:33:57;59.83;;;19.77;;
29432;SDS011;16405;53.964;13.448;2023-12-04T00:36:23;52.95;;;19.58;;
29432;SDS011;16405;53.964;13.448;2023-12-04T00:38:49;59.80;;;20.63;;
29432;SDS011;16405;53.964;13.448;2023-12-04T00:41:23;62.35;;;19.20;;
29432;SDS011;16405;53.964;13.448;2023-12-04T00:43:52;53.90;;;18.35;;
29432;SDS011;16405;53.964;13.448;2023-12-04T00:46:18;63.47;;;21.33;;
29432;SDS011;16405;53.964;13.448;2023-12-04T00:48:49;55.42;;;20.38;;
29432;SDS011;16405;53.964;13.448;2023-12-04T00:51:14;54.80;;;21.83;;
29432;SDS011;16405;53.964;13.448;2023-12-04T00:53:40;55.92;;;21.02;;
29432;SDS011;16405;53.964;13.448;2023-12-04T00:56:09;56.47;;;19.85;;
29432;SDS011;16405;53.964;13.448;2023-12-04T00:58:44;54.88;;;19.48;;
29432;SDS011;16405;53.964;13.448;2023-12-04T01:01:10;62.50;;;21.20;;
29432;SDS011;16405;53.964;13.448;2023-12-04T01:03:37;49.15;;;18.92;;
29432;SDS011;16405;53.964;13.448;2023-12-04T01:06:19;50.92;;;18.73;;
29432;SDS011;16405;53.964;13.448;2023-12-04T01:08:48;51.00;;;17.95;;
29432;SDS011;16405;53.964;13.448;2023-12-04T01:11:15;47.47;;;18.45;;
29432;SDS011;16405;53.964;13.448;2023-12-04T01:13:45;44.33;;;17.38;;
29432;SDS011;16405;53.964;13.448;2023-12-04T01:16:12;46.35;;;18.35;;
29432;SDS011;16405;53.964;13.448;2023-12-04T01:18:45;48.58;;;18.13;;
29432;SDS011;16405;53.964;13.448;2023-12-04T01:21:11;48.25;;;17.95;;
29432;SDS011;16405;53.964;13.448;2023-12-04T01:23:37;46.63;;;18.50;;
29432;SDS011;16405;53.964;13.448;2023-12-04T01:26:04;48.63;;;19.45;;
29432;SDS011;16405;53.964;13.448;2023-12-04T01:28:37;44.90;;;18.48;;
29432;SDS011;16405;53.964;13.448;2023-12-04T01:31:03;51.13;;;18.58;;
29432;SDS011;16405;53.964;13.448;2023-12-04T01:33:29;54.38;;;20.15;;
29432;SDS011;16405;53.964;13.448;2023-12-04T01:36:03;50.38;;;18.98;;
29432;SDS011;16405;53.964;13.448;2023-12-04T01:38:32;48.75;;;18.52;;
29432;SDS011;16405;53.964;13.448;2023-12-04T01:40:58;54.17;;;19.92;;
29432;SDS011;16405;53.964;13.448;2023-12-04T01:43:33;48.97;;;19.77;;
29432;SDS011;16405;53.964;13.448;2023-12-04T01:46:02;47.95;;;17.42;;
29432;SDS011;16405;53.964;13.448;2023-12-04T01:48:34;44.72;;;17.83;;
29432;SDS011;16405;53.964;13.448;2023-12-04T01:51:08;48.53;;;19.30;;
29432;SDS011;16405;53.964;13.448;2023-12-04T01:53:44;52.72;;;20.10;;
29432;SDS011;16405;53.964;13.448;2023-12-04T01:56:16;48.17;;;19.58;;
29432;SDS011;16405;53.964;13.448;2023-12-04T01:58:45;46.63;;;17.85;;
29432;SDS011;16405;53.964;13.448;2023-12-04T02:01:11;52.95;;;20.00;;
29432;SDS011;16405;53.964;13.448;2023-12-04T02:03:37;53.38;;;19.58;;
29432;SDS011;16405;53.964;13.448;2023-12-04T02:06:03;50.55;;;19.20;;
29432;SDS011;16405;53.964;13.448;2023-12-04T02:08:37;38.88;;;14.98;;
29432;SDS011;16405;53.964;13.448;2023-12-04T02:11:06;56.53;;;19.67;;
29432;SDS011;16405;53.964;13.448;2023-12-04T02:13:32;58.92;;;21.35;;
29432;SDS011;16405;53.964;13.448;2023-12-04T02:16:01;52.65;;;20.63;;
29432;SDS011;16405;53.964;13.448;2023-12-04T02:18:35;52.00;;;20.77;;
29432;SDS011;16405;53.964;13.448;2023-12-04T02:21:07;56.25;;;20.50;;
29432;SDS011;16405;53.964;13.448;2023-12-04T02:23:33;62.55;;;22.70;;
29432;SDS011;16405;53.964;13.448;2023-12-04T02:25:59;61.78;;;23.40;;
29432;SDS011;16405;53.964;13.448;2023-12-04T02:28:34;57.55;;;20.70;;
29432;SDS011;16405;53.964;13.448;2023-12-04T02:31:04;56.78;;;22.02;;
29432;SDS011;16405;53.964;13.448;2023-12-04T02:33:32;64.03;;;24.70;;
29432;SDS011;16405;53.964;13.448;2023-12-04T02:36:02;60.67;;;23.77;;
29432;SDS011;16405;53.964;13.448;2023-12-04T02:38:30;48.30;;;18.98;;
29432;SDS011;16405;53.964;13.448;2023-12-04T02:40:57;53.63;;;20.15;;
29432;SDS011;16405;53.964;13.448;2023-12-04T02:43:26;45.60;;;18.83;;
29432;SDS011;16405;53.964;13.448;2023-12-04T02:45:54;48.88;;;19.95;;
29432;SDS011;16405;53.964;13.448;2023-12-04T02:48:19;49.15;;;20.60;;
29432;SDS011;16405;53.964;13.448;2023-12-04T02:50:45;55.55;;;21.17;;
29432;SDS011;16405;53.964;13.448;2023-12-04T02:53:13;54.88;;;20.70;;
29432;SDS011;16405;53.964;13.448;2023-12-04T02:55:50;54.70;;;21.08;;
29432;SDS011;16405;53.964;13.448;2023-12-04T02:58:15;57.13;;;21.17;;
29432;SDS011;16405;53.964;13.448;2023-12-04T03:00:48;62.05;;;22.05;;
29432;SDS011;16405;53.964;13.448;2023-12-04T03:03:14;55.63;;;20.58;;
29432;SDS011;16405;53.964;13.448;2023-12-04T03:05:40;61.03;;;22.00;;
29432;SDS011;16405;53.964;13.448;2023-12-04T03:08:06;60.28;;;23.10;;
29432;SDS011;16405;53.964;13.448;2023-12-04T03:10:32;58.00;;;22.02;;
29432;SDS011;16405;53.964;13.448;2023-12-04T03:12:58;64.20;;;23.90;;
29432;SDS011;16405;53.964;13.448;2023-12-04T03:15:26;65.78;;;23.10;;
29432;SDS011;16405;53.964;13.448;2023-12-04T03:17:55;60.97;;;23.42;;
29432;SDS011;16405;53.964;13.448;2023-12-04T03:20:24;63.53;;;23.40;;
29432;SDS011;16405;53.964;13.448;2023-12-04T03:23:00;71.30;;;23.80;;
29432;SDS011;16405;53.964;13.448;2023-12-04T03:25:26;58.50;;;22.70;;
29432;SDS011;16405;53.964;13.448;2023-12-04T03:27:51;61.65;;;22.77;;
29432;SDS011;16405;53.964;13.448;2023-12-04T03:30:17;64.38;;;23.50;;
29432;SDS011;16405;53.964;13.448;2023-12-04T03:32:53;59.33;;;21.77;;
29432;SDS011;16405;53.964;13.448;2023-12-04T03:35:22;59.97;;;22.73;;
29432;SDS011;16405;53.964;13.448;2023-12-04T03:37:59;66.03;;;23.80;;
29432;SDS011;16405;53.964;13.448;2023-12-04T03:40:25;69.45;;;23.88;;
29432;SDS011;16405;53.964;13.448;2023-12-04T03:42:59;62.70;;;23.20;;
29432;SDS011;16405;53.964;13.448;2023-12-04T03:45:25;63.15;;;23.45;;
29432;SDS011;16405;53.964;13.448;2023-12-04T03:47:51;63.10;;;21.42;;
29432;SDS011;16405;53.964;13.448;2023-12-04T03:50:17;65.18;;;23.98;;
29432;SDS011;16405;53.964;13.448;2023-12-04T03:52:53;57.08;;;21.38;;
29432;SDS011;16405;53.964;13.448;2023-12-04T03:55:19;66.82;;;23.90;;
29432;SDS011;16405;53.964;13.448;2023-12-04T03:57:45;53.60;;;21.02;;
29432;SDS011;16405;53.964;13.448;2023-12-04T04:00:11;55.53;;;22.48;;
29432;SDS011;16405;53.964;13.448;2023-12-04T04:02:42;61.97;;;22.58;;
29432;SDS011;16405;53.964;13.448;2023-12-04T04:05:09;56.42;;;22.38;;
29432;SDS011;16405;53.964;13.448;2023-12-04T04:07:35;56.92;;;22.92;;
29432;SDS011;16405;53.964;13.448;2023-12-04T04:10:04;54.63;;;20.60;;
29432;SDS011;16405;53.964;13.448;2023-12-04T04:12:39;59.92;;;23.25;;
29432;SDS011;16405;53.964;13.448;2023-12-04T04:15:05;69.00;;;24.63;;
29432;SDS011;16405;53.964;13.448;2023-12-04T04:17:32;64.38;;;24.02;;
29432;SDS011;16405;53.964;13.448;2023-12-04T04:20:08;66.15;;;23.00;;
29432;SDS011;16405;53.964;13.448;2023-12-04T04:22:36;64.30;;;24.52;;
29432;SDS011;16405;53.964;13.448;2023-12-04T04:25:09;57.35;;;21.15;;
29432;SDS011;16405;53.964;13.448;2023-12-04T04:27:35;64.70;;;24.25;;
29432;SDS011;16405;53.964;13.448;2023-12-04T04:30:01;69.22;;;23.90;;
29432;SDS011;16405;53.964;13.448;2023-12-04T04:32:30;68.40;;;24.33;;
29432;SDS011;16405;53.964;13.448;2023-12-04T04:34:58;75.10;;;25.85;;
29432;SDS011;16405;53.964;13.448;2023-12-04T04:37:25;74.55;;;24.20;;
29432;SDS011;16405;53.964;13.448;2023-12-04T04:39:50;67.97;;;24.88;;
29432;SDS011;16405;53.964;13.448;2023-12-04T04:42:16;79.47;;;27.27;;
29432;SDS011;16405;53.964;13.448;2023-12-04T04:44:42;74.55;;;26.10;;
29432;SDS011;16405;53.964;13.448;2023-12-04T04:47:08;69.25;;;22.67;;
29432;SDS011;16405;53.964;13.448;2023-12-04T04:49:44;71.28;;;24.80;;
29432;SDS011;16405;53.964;13.448;2023-12-04T04:52:10;66.45;;;23.75;;
29432;SDS011;16405;53.964;13.448;2023-12-04T04:54:43;67.65;;;23.30;;
29432;SDS011;16405;53.964;13.448;2023-12-04T04:57:09;61.28;;;21.95;;
29432;SDS011;16405;53.964;13.448;2023-12-04T04:59:37;68.88;;;23.08;;
29432;SDS011;16405;53.964;13.448;2023-12-04T05:02:03;60.33;;;21.10;;
29432;SDS011;16405;53.964;13.448;2023-12-04T05:04:40;69.70;;;23.27;;
29432;SDS011;16405;53.964;13.448;2023-12-04T05:07:06;68.20;;;23.27;;
29432;SDS011;16405;53.964;13.448;2023-12-04T05:09:37;60.63;;;21.05;;
29432;SDS011;16405;53.964;13.448;2023-12-04T05:12:03;67.72;;;24.15;;
29432;SDS011;16405;53.964;13.448;2023-12-04T05:14:29;68.07;;;23.88;;
29432;SDS011;16405;53.964;13.448;2023-12-04T05:16:55;76.53;;;25.17;;
29432;SDS011;16405;53.964;13.448;2023-12-04T05:19:21;74.07;;;25.55;;
29432;SDS011;16405;53.964;13.448;2023-12-04T05:21:50;86.28;;;30.00;;
29432;SDS011;16405;53.964;13.448;2023-12-04T05:24:18;75.40;;;24.55;;
29432;SDS011;16405;53.964;13.448;2023-12-04T05:26:44;80.18;;;25.98;;
29432;SDS011;16405;53.964;13.448;2023-12-04T05:29:13;82.85;;;27.23;;
29432;SDS011;16405;53.964;13.448;2023-12-04T05:31:38;75.38;;;25.58;;
29432;SDS011;16405;53.964;13.448;2023-12-04T05:34:07;83.70;;;26.17;;
29432;SDS011;16405;53.964;13.448;2023-12-04T05:36:35;70.55;;;23.92;;
29432;SDS011;16405;53.964;13.448;2023-12-04T05:39:01;59.00;;;19.02;;
29432;SDS011;16405;53.964;13.448;2023-12-04T05:41:29;68.30;;;23.48;;
29432;SDS011;16405;53.964;13.448;2023-12-04T05:44:01;34.75;;;12.05;;
29432;SDS011;16405;53.964;13.448;2023-12-04T05:46:26;64.38;;;22.35;;
29432;SDS011;16405;53.964;13.448;2023-12-04T05:48:53;76.88;;;24.38;;
29432;SDS011;16405;53.964;13.448;2023-12-04T05:51:19;72.28;;;24.90;;
29432;SDS011;16405;53.964;13.448;2023-12-04T05:53:44;66.82;;;23.50;;
29432;SDS011;16405;53.964;13.448;2023-12-04T05:56:10;58.20;;;21.35;;
29432;SDS011;16405;53.964;13.448;2023-12-04T05:58:44;74.78;;;23.90;;
29432;SDS011;16405;53.964;13.448;2023-12-04T06:01:09;62.33;;;21.52;;
29432;SDS011;16405;53.964;13.448;2023-12-04T06:03:38;69.63;;;23.70;;
29432;SDS011;16405;53.964;13.448;2023-12-04T06:06:04;71.60;;;22.33;;
29432;SDS011;16405;53.964;13.448;2023-12-04T06:08:38;76.82;;;25.83;;
29432;SDS011;16405;53.964;13.448;2023-12-04T06:11:04;76.50;;;23.58;;
29432;SDS011;16405;53.964;13.448;2023-12-04T06:13:30;74.68;;;23.98;;
29432;SDS011;16405;53.964;13.448;2023-12-04T06:16:01;81.57;;;24.90;;
29432;SDS011;16405;53.964;13.448;2023-12-04T06:18:27;56.75;;;19.75;;
29432;SDS011;16405;53.964;13.448;2023-12-04T06:20:55;77.53;;;26.08;;
29432;SDS011;16405;53.964;13.448;2023-12-04T06:23:21;67.00;;;20.20;;
29432;SDS011;16405;53.964;13.448;2023-12-04T06:25:51;92.55;;;33.33;;
29432;SDS011;16405;53.964;13.448;2023-12-04T06:28:17;96.20;;;32.17;;
29432;SDS011;16405;53.964;13.448;2023-12-04T06:30:43;92.80;;;33.85;;
29432;SDS011;16405;53.964;13.448;2023-12-04T06:33:10;97.13;;;31.40;;
29432;SDS011;16405;53.964;13.448;2023-12-04T06:35:38;70.57;;;24.92;;
29432;SDS011;16405;53.964;13.448;2023-12-04T06:38:14;58.13;;;22.10;;
29432;SDS011;16405;53.964;13.448;2023-12-04T06:40:51;65.95;;;23.27;;
29432;SDS011;16405;53.964;13.448;2023-12-04T06:43:17;71.15;;;25.42;;
29432;SDS011;16405;53.964;13.448;2023-12-04T06:45:44;81.82;;;26.73;;
29432;SDS011;16405;53.964;13.448;2023-12-04T06:48:12;74.03;;;26.10;;
29432;SDS011;16405;53.964;13.448;2023-12-04T06:50:43;65.15;;;21.88;;
29432;SDS011;16405;53.964;13.448;2023-12-04T06:53:11;78.53;;;26.08;;
29432;SDS011;16405;53.964;13.448;2023-12-04T06:55:37;71.45;;;24.23;;
29432;SDS011;16405;53.964;13.448;2023-12-04T06:58:03;80.30;;;25.27;;
29432;SDS011;16405;53.964;13.448;2023-12-04T07:00:36;78.20;;;23.08;;
29432;SDS011;16405;53.964;13.448;2023-12-04T07:03:02;55.78;;;17.52;;
29432;SDS011;16405;53.964;13.448;2023-12-04T07:05:31;76.07;;;24.13;;
29432;SDS011;16405;53.964;13.448;2023-12-04T07:08:02;85.38;;;27.38;;
29432;SDS011;16405;53.964;13.448;2023-12-04T07:10:28;104.88;;;27.90;;
29432;SDS011;16405;53.964;13.448;2023-12-04T07:12:54;96.63;;;27.20;;
29432;SDS011;16405;53.964;13.448;2023-12-04T07:15:20;63.22;;;19.58;;
29432;SDS011;16405;53.964;13.448;2023-12-04T07:17:45;61.88;;;19.73;;
29432;SDS011;16405;53.964;13.448;2023-12-04T07:20:11;90.25;;;27.30;;
29432;SDS011;16405;53.964;13.448;2023-12-04T07:22:41;79.63;;;23.50;;
29432;SDS011;16405;53.964;13.448;2023-12-04T07:25:07;78.85;;;25.08;;
29432;SDS011;16405;53.964;13.448;2023-12-04T07:27:33;94.78;;;26.83;;
29432;SDS011;16405;53.964;13.448;2023-12-04T07:29:59;80.78;;;22.17;;
29432;SDS011;16405;53.964;13.448;2023-12-04T07:32:25;104.57;;;28.92;;
29432;SDS011;16405;53.964;13.448;2023-12-04T07:37:27;48.63;;;16.42;;
29432;SDS011;16405;53.964;13.448;2023-12-04T07:40:05;83.60;;;23.75;;
29432;SDS011;16405;53.964;13.448;2023-12-04T07:42:33;54.92;;;17.30;;
29432;SDS011;16405;53.964;13.448;2023-12-04T07:45:08;84.82;;;25.80;;
29432;SDS011;16405;53.964;13.448;2023-12-04T07:47:37;83.35;;;25.85;;
29432;SDS011;16405;53.964;13.448;2023-12-04T07:50:03;81.82;;;27.02;;
29432;SDS011;16405;53.964;13.448;2023-12-04T07:52:41;88.50;;;26.35;;
29432;SDS011;16405;53.964;13.448;2023-12-04T07:55:07;90.70;;;26.63;;
29432;SDS011;16405;53.964;13.448;2023-12-04T07:57:40;70.78;;;20.63;;
29432;SDS011;16405;53.964;13.448;2023-12-04T08:00:10;68.10;;;20.10;;
29432;SDS011;16405;53.964;13.448;2023-12-04T08:02:47;69.90;;;21.20;;
29432;SDS011;16405;53.964;13.448;2023-12-04T08:05:24;90.72;;;28.15;;
29432;SDS011;16405;53.964;13.448;2023-12-04T08:07:52;63.60;;;19.30;;
29432;SDS011;16405;53.964;13.448;2023-12-04T08:10:25;82.40;;;24.35;;
29432;SDS011;16405;53.964;13.448;2023-12-04T08:12:52;75.43;;;23.38;;
29432;SDS011;16405;53.964;13.448;2023-12-04T08:15:17;87.18;;;28.38;;
29432;SDS011;16405;53.964;13.448;2023-12-04T08:17:43;97.45;;;29.63;;
29432;SDS011;16405;53.964;13.448;2023-12-04T08:20:09;94.85;;;29.08;;
29432;SDS011;16405;53.964;13.448;2023-12-04T08:22:42;96.53;;;29.15;;
29432;SDS011;16405;53.964;13.448;2023-12-04T08:25:10;60.67;;;19.35;;
29432;SDS011;16405;53.964;13.448;2023-12-04T08:27:37;104.10;;;28.65;;
29432;SDS011;16405;53.964;13.448;2023-12-04T08:30:08;76.57;;;24.58;;
29432;SDS011;16405;53.964;13.448;2023-12-04T08:32:34;66.38;;;22.08;;
29432;SDS011;16405;53.964;13.448;2023-12-04T08:35:00;72.88;;;24.30;;
29432;SDS011;16405;53.964;13.448;2023-12-04T08:37:26;79.00;;;23.02;;
29432;SDS011;16405;53.964;13.448;2023-12-04T08:39:52;86.03;;;25.15;;
29432;SDS011;16405;53.964;13.448;2023-12-04T08:42:18;89.35;;;25.20;;
29432;SDS011;16405;53.964;13.448;2023-12-04T08:44:49;67.07;;;21.45;;
29432;SDS011;16405;53.964;13.448;2023-12-04T08:47:15;48.70;;;17.10;;
29432;SDS011;16405;53.964;13.448;2023-12-04T08:49:41;81.50;;;26.13;;
29432;SDS011;16405;53.964;13.448;2023-12-04T08:52:08;77.28;;;24.02;;
29432;SDS011;16405;53.964;13.448;2023-12-04T08:54:34;73.75;;;24.48;;
29432;SDS011;16405;53.964;13.448;2023-12-04T08:57:09;78.33;;;24.03;;
29432;SDS011;16405;53.964;13.448;2023-12-04T08:59:35;73.35;;;25.50;;
29432;SDS011;16405;53.964;13.448;2023-12-04T09:02:01;67.22;;;22.15;;
29432;SDS011;16405;53.964;13.448;2023-12-04T09:04:37;22.77;;;10.13;;
29432;SDS011;16405;53.964;13.448;2023-12-04T09:07:04;27.60;;;8.45;;
29432;SDS011;16405;53.964;13.448;2023-12-04T09:09:30;63.58;;;20.48;;
29432;SDS011;16405;53.964;13.448;2023-12-04T09:12:18;32.35;;;11.75;;
29432;SDS011;16405;53.964;13.448;2023-12-04T09:14:43;65.38;;;20.38;;
29432;SDS011;16405;53.964;13.448;2023-12-04T09:17:12;75.22;;;24.00;;
29432;SDS011;16405;53.964;13.448;2023-12-04T09:19:49;81.45;;;26.23;;
29432;SDS011;16405;53.964;13.448;2023-12-04T09:22:15;67.20;;;22.75;;
29432;SDS011;16405;53.964;13.448;2023-12-04T09:24:52;54.13;;;18.50;;
29432;SDS011;16405;53.964;13.448;2023-12-04T09:27:22;61.78;;;23.45;;
29432;SDS011;16405;53.964;13.448;2023-12-04T09:29:51;65.63;;;22.98;;
29432;SDS011;16405;53.964;13.448;2023-12-04T09:32:22;67.18;;;22.10;;
29432;SDS011;16405;53.964;13.448;2023-12-04T09:34:48;69.65;;;21.80;;
29432;SDS011;16405;53.964;13.448;2023-12-04T09:37:27;57.00;;;21.17;;
29432;SDS011;16405;53.964;13.448;2023-12-04T09:39:53;65.18;;;24.48;;
29432;SDS011;16405;53.964;13.448;2023-12-04T09:42:33;73.55;;;25.70;;
29432;SDS011;16405;53.964;13.448;2023-12-04T09:47:48;70.10;;;25.58;;
29432;SDS011;16405;53.964;13.448;2023-12-04T09:50:15;60.50;;;22.63;;
29432;SDS011;16405;53.964;13.448;2023-12-04T09:52:47;63.95;;;24.33;;
29432;SDS011;16405;53.964;13.448;2023-12-04T09:55:19;58.17;;;20.92;;
29432;SDS011;16405;53.964;13.448;2023-12-04T09:57:46;55.13;;;20.02;;
29432;SDS011;16405;53.964;13.448;2023-12-04T10:00:18;58.72;;;21.25;;
29432;SDS011;16405;53.964;13.448;2023-12-04T10:02:47;50.42;;;19.55;;
29432;SDS011;16405;53.964;13.448;2023-12-04T10:05:13;63.78;;;24.15;;
29432;SDS011;16405;53.964;13.448;2023-12-04T10:07:49;58.70;;;21.00;;
29432;SDS011;16405;53.964;13.448;2023-12-04T10:10:18;43.03;;;14.77;;
29432;SDS011;16405;53.964;13.448;2023-12-04T10:12:50;56.38;;;21.55;;
29432;SDS011;16405;53.964;13.448;2023-12-04T10:15:16;57.45;;;20.92;;
29432;SDS011;16405;53.964;13.448;2023-12-04T10:17:48;38.08;;;17.27;;
29432;SDS011;16405;53.964;13.448;2023-12-04T10:20:19;21.77;;;8.70;;
29432;SDS011;16405;53.964;13.448;2023-12-04T10:23:14;50.97;;;15.65;;
29432;SDS011;16405;53.964;13.448;2023-12-04T10:25:42;53.00;;;19.98;;
29432;SDS011;16405;53.964;13.448;2023-12-04T10:28:16;52.97;;;21.45;;
29432;SDS011;16405;53.964;13.448;2023-12-04T10:30:54;49.53;;;18.52;;
29432;SDS011;16405;53.964;13.448;2023-12-04T10:33:21;39.25;;;16.08;;
29432;SDS011;16405;53.964;13.448;2023-12-04T10:36:01;41.05;;;16.10;;
29432;SDS011;16405;53.964;13.448;2023-12-04T10:40:58;46.25;;;18.10;;
29432;SDS011;16405;53.964;13.448;2023-12-04T10:43:46;46.72;;;18.75;;
29432;SDS011;16405;53.964;13.448;2023-12-04T10:46:15;37.80;;;15.95;;
29432;SDS011;16405;53.964;13.448;2023-12-04T10:48:44;47.20;;;18.60;;
29432;SDS011;16405;53.964;13.448;2023-12-04T10:51:16;47.00;;;19.95;;
29432;SDS011;16405;53.964;13.448;2023-12-04T10:53:47;45.42;;;19.60;;
29432;SDS011;16405;53.964;13.448;2023-12-04T10:56:27;46.40;;;19.00;;
29432;SDS011;16405;53.964;13.448;2023-12-04T10:59:21;44.17;;;16.23;;
29432;SDS011;16405;53.964;13.448;2023-12-04T11:02:03;36.40;;;15.23;;
29432;SDS011;16405;53.964;13.448;2023-12-04T11:04:51;32.50;;;13.95;;
29432;SDS011;16405;53.964;13.448;2023-12-04T11:07:36;45.30;;;18.25;;
29432;SDS011;16405;53.964;13.448;2023-12-04T11:10:42;32.45;;;12.57;;
29432;SDS011;16405;53.964;13.448;2023-12-04T11:19:00;35.50;;;12.32;;
29432;SDS011;16405;53.964;13.448;2023-12-04T11:21:34;31.98;;;12.38;;
29432;SDS011;16405;53.964;13.448;2023-12-04T11:24:04;48.80;;;19.88;;
29432;SDS011;16405;53.964;13.448;2023-12-04T11:26:37;39.13;;;15.23;;
29432;SDS011;16405;53.964;13.448;2023-12-04T11:29:11;38.33;;;14.93;;
29432;SDS011;16405;53.964;13.448;2023-12-04T11:34:35;36.85;;;15.90;;
29432;SDS011;16405;53.964;13.448;2023-12-04T11:37:15;41.08;;;15.88;;
29432;SDS011;16405;53.964;13.448;2023-12-04T11:39:51;41.33;;;16.48;;
29432;SDS011;16405;53.964;13.448;2023-12-04T11:42:27;41.72;;;16.58;;
29432;SDS011;16405;53.964;13.448;2023-12-04T11:45:13;42.58;;;18.08;;
29432;SDS011;16405;53.964;13.448;2023-12-04T11:50:47;74.25;;;27.73;;
29432;SDS011;16405;53.964;13.448;2023-12-04T11:53:24;50.15;;;20.35;;
29432;SDS011;16405;53.964;13.448;2023-12-04T11:55:50;72.55;;;27.38;;
29432;SDS011;16405;53.964;13.448;2023-12-04T11:58:42;56.63;;;23.17;;
29432;SDS011;16405;53.964;13.448;2023-12-04T12:01:23;58.08;;;22.20;;
29432;SDS011;16405;53.964;13.448;2023-12-04T12:03:51;52.92;;;21.35;;
29432;SDS011;16405;53.964;13.448;2023-12-04T12:06:17;50.03;;;20.48;;
29432;SDS011;16405;53.964;13.448;2023-12-04T12:08:49;40.65;;;17.08;;
29432;SDS011;16405;53.964;13.448;2023-12-04T12:11:16;30.88;;;13.15;;
29432;SDS011;16405;53.964;13.448;2023-12-04T12:13:45;46.05;;;20.23;;
29432;SDS011;16405;53.964;13.448;2023-12-04T12:16:19;63.67;;;23.33;;
29432;SDS011;16405;53.964;13.448;2023-12-04T12:18:46;49.17;;;21.67;;
29432;SDS011;16405;53.964;13.448;2023-12-04T12:21:12;51.45;;;21.42;;
29432;SDS011;16405;53.964;13.448;2023-12-04T12:23:38;51.90;;;20.02;;
29432;SDS011;16405;53.964;13.448;2023-12-04T12:26:10;48.47;;;20.63;;
29432;SDS011;16405;53.964;13.448;2023-12-04T12:28:36;51.30;;;20.23;;
29432;SDS011;16405;53.964;13.448;2023-12-04T12:31:05;46.38;;;20.08;;
29432;SDS011;16405;53.964;13.448;2023-12-04T12:33:31;52.92;;;22.80;;
29432;SDS011;16405;53.964;13.448;2023-12-04T12:36:05;52.33;;;20.23;;
29432;SDS011;16405;53.964;13.448;2023-12-04T12:38:31;47.35;;;20.10;;
29432;SDS011;16405;53.964;13.448;2023-12-04T12:41:08;52.97;;;20.25;;
29432;SDS011;16405;53.964;13.448;2023-12-04T12:43:37;53.45;;;23.42;;
29432;SDS011;16405;53.964;13.448;2023-12-04T12:46:03;49.08;;;19.50;;
29432;SDS011;16405;53.964;13.448;2023-12-04T12:48:39;42.17;;;18.80;;
29432;SDS011;16405;53.964;13.448;2023-12-04T12:51:16;47.60;;;19.98;;
29432;SDS011;16405;53.964;13.448;2023-12-04T12:53:45;44.88;;;19.65;;
29432;SDS011;16405;53.964;13.448;2023-12-04T12:56:17;42.45;;;19.33;;
29432;SDS011;16405;53.964;13.448;2023-12-04T12:58:44;58.80;;;22.88;;
29432;SDS011;16405;53.964;13.448;2023-12-04T13:01:10;64.07;;;27.15;;
29432;SDS011;16405;53.964;13.448;2023-12-04T13:03:36;59.22;;;24.15;;
29432;SDS011;16405;53.964;13.448;2023-12-04T13:06:03;56.78;;;25.23;;
29432;SDS011;16405;53.964;13.448;2023-12-04T13:08:35;58.97;;;25.80;;
29432;SDS011;16405;53.964;13.448;2023-12-04T13:11:00;48.75;;;20.75;;
29432;SDS011;16405;53.964;13.448;2023-12-04T13:13:26;47.90;;;20.23;;
29432;SDS011;16405;53.964;13.448;2023-12-04T13:15:53;48.47;;;20.85;;
29432;SDS011;16405;53.964;13.448;2023-12-04T13:18:26;48.92;;;19.17;;
29432;SDS011;16405;53.964;13.448;2023-12-04T13:20:52;43.58;;;16.35;;
29432;SDS011;16405;53.964;13.448;2023-12-04T13:23:18;46.63;;;18.67;;
29432;SDS011;16405;53.964;13.448;2023-12-04T13:25:44;47.38;;;20.92;;
29432;SDS011;16405;53.964;13.448;2023-12-04T13:28:10;48.08;;;19.27;;
29432;SDS011;16405;53.964;13.448;2023-12-04T13:30:39;37.17;;;17.10;;
29432;SDS011;16405;53.964;13.448;2023-12-04T13:33:05;39.20;;;18.17;;
29432;SDS011;16405;53.964;13.448;2023-12-04T13:35:33;42.58;;;17.15;;
29432;SDS011;16405;53.964;13.448;2023-12-04T13:38:02;49.75;;;19.13;;
29432;SDS011;16405;53.964;13.448;2023-12-04T13:40:30;46.90;;;16.27;;
29432;SDS011;16405;53.964;13.448;2023-12-04T13:42:59;47.60;;;20.17;;
29432;SDS011;16405;53.964;13.448;2023-12-04T13:45:46;49.30;;;18.45;;
29432;SDS011;16405;53.964;13.448;2023-12-04T13:48:21;29.02;;;11.82;;
29432;SDS011;16405;53.964;13.448;2023-12-04T13:50:48;42.97;;;18.40;;
29432;SDS011;16405;53.964;13.448;2023-12-04T13:53:15;48.47;;;20.25;;
29432;SDS011;16405;53.964;13.448;2023-12-04T13:55:45;44.38;;;19.38;;
29432;SDS011;16405;53.964;13.448;2023-12-04T13:58:26;47.70;;;19.58;;
29432;SDS011;16405;53.964;13.448;2023-12-04T14:01:04;43.55;;;19.05;;
29432;SDS011;16405;53.964;13.448;2023-12-04T14:03:45;35.35;;;13.02;;
29432;SDS011;16405;53.964;13.448;2023-12-04T14:06:12;48.92;;;19.55;;
29432;SDS011;16405;53.964;13.448;2023-12-04T14:08:41;48.90;;;19.30;;
29432;SDS011;16405;53.964;13.448;2023-12-04T14:11:07;21.38;;;8.27;;
29432;SDS011;16405;53.964;13.448;2023-12-04T14:13:41;40.28;;;15.43;;
29432;SDS011;16405;53.964;13.448;2023-12-04T14:16:07;60.00;;;24.20;;
29432;SDS011;16405;53.964;13.448;2023-12-04T14:18:34;56.42;;;22.05;;
29432;SDS011;16405;53.964;13.448;2023-12-04T14:21:02;50.33;;;21.27;;
29432;SDS011;16405;53.964;13.448;2023-12-04T14:23:35;51.65;;;19.73;;
29432;SDS011;16405;53.964;13.448;2023-12-04T14:26:01;45.53;;;17.90;;
29432;SDS011;16405;53.964;13.448;2023-12-04T14:28:29;38.08;;;17.05;;
29432;SDS011;16405;53.964;13.448;2023-12-04T14:31:05;39.67;;;15.15;;
29432;SDS011;16405;53.964;13.448;2023-12-04T14:33:37;50.40;;;17.67;;
29432;SDS011;16405;53.964;13.448;2023-12-04T14:36:06;47.03;;;20.73;;
29432;SDS011;16405;53.964;13.448;2023-12-04T14:38:33;40.67;;;15.30;;
29432;SDS011;16405;53.964;13.448;2023-12-04T14:41:08;47.47;;;20.88;;
29432;SDS011;16405;53.964;13.448;2023-12-04T14:43:36;36.58;;;14.40;;